sensor_id;sensor_type;location;lat;lon;timestamp;P1;durP1;ratioP1;P2;durP2;ratioP2
49942;SDS011;36011;53.362;58.948;2023-04-24T00:02:46;6.50;;;3.50;;
49942;SDS011;36011;53.362;58.948;2023-04-24T00:05:54;5.10;;;3.67;;
49942;SDS011;36011;53.362;58.948;2023-04-24T00:08:56;3.80;;;3.00;;
49942;SDS011;36011;53.362;58.948;2023-04-24T00:12:01;4.15;;;3.38;;
49942;SDS011;36011;53.362;58.948;2023-04-24T00:15:05;3.20;;;2.88;;
49942;SDS011;36011;53.362;58.948;2023-04-24T00:18:12;4.97;;;3.38;;
49942;SDS011;36011;53.362;58.948;2023-04-24T00:21:17;3.85;;;3.42;;
49942;SDS011;36011;53.362;58.948;2023-04-24T00:24:21;4.25;;;3.50;;
49942;SDS011;36011;53.362;58.948;2023-04-24T00:27:28;4.82;;;3.45;;
49942;SDS011;36011;53.362;58.948;2023-04-24T00:30:30;8.95;;;3.58;;
49942;SDS011;36011;53.362;58.948;2023-04-24T00:33:35;3.42;;;2.92;;
49942;SDS011;36011;53.362;58.948;2023-04-24T00:39:43;3.53;;;3.22;;
49942;SDS011;36011;53.362;58.948;2023-04-24T00:42:49;4.35;;;3.05;;
49942;SDS011;36011;53.362;58.948;2023-04-24T00:45:55;9.05;;;3.10;;
49942;SDS011;36011;53.362;58.948;2023-04-24T00:48:57;3.90;;;3.03;;
49942;SDS011;36011;53.362;58.948;2023-04-24T00:52:05;3.95;;;2.80;;
49942;SDS011;36011;53.362;58.948;2023-04-24T00:58:15;6.63;;;2.88;;
49942;SDS011;36011;53.362;58.948;2023-04-24T01:01:22;6.45;;;3.25;;
49942;SDS011;36011;53.362;58.948;2023-04-24T01:04:31;5.40;;;3.30;;
49942;SDS011;36011;53.362;58.948;2023-04-24T01:07:32;4.47;;;3.75;;
49942;SDS011;36011;53.362;58.948;2023-04-24T01:10:34;5.45;;;3.80;;
49942;SDS011;36011;53.362;58.948;2023-04-24T01:13:42;4.30;;;3.22;;
49942;SDS011;36011;53.362;58.948;2023-04-24T01:16:46;3.65;;;2.65;;
49942;SDS011;36011;53.362;58.948;2023-04-24T01:19:53;4.55;;;3.13;;
49942;SDS011;36011;53.362;58.948;2023-04-24T01:23:00;7.85;;;3.22;;
49942;SDS011;36011;53.362;58.948;2023-04-24T01:26:02;3.63;;;3.03;;
49942;SDS011;36011;53.362;58.948;2023-04-24T01:29:12;5.05;;;3.33;;
49942;SDS011;36011;53.362;58.948;2023-04-24T01:32:16;7.10;;;4.03;;
49942;SDS011;36011;53.362;58.948;2023-04-24T01:35:24;5.53;;;3.42;;
49942;SDS011;36011;53.362;58.948;2023-04-24T01:38:27;4.30;;;3.25;;
49942;SDS011;36011;53.362;58.948;2023-04-24T01:41:31;8.52;;;3.42;;
49942;SDS011;36011;53.362;58.948;2023-04-24T01:44:35;5.60;;;3.40;;
49942;SDS011;36011;53.362;58.948;2023-04-24T01:47:41;12.88;;;3.92;;
49942;SDS011;36011;53.362;58.948;2023-04-24T01:50:49;4.68;;;3.58;;
49942;SDS011;36011;53.362;58.948;2023-04-24T01:53:55;5.43;;;3.17;;
49942;SDS011;36011;53.362;58.948;2023-04-24T01:57:00;4.65;;;3.55;;
49942;SDS011;36011;53.362;58.948;2023-04-24T02:00:06;4.82;;;3.28;;
49942;SDS011;36011;53.362;58.948;2023-04-24T02:03:14;5.65;;;3.92;;
49942;SDS011;36011;53.362;58.948;2023-04-24T02:06:15;5.57;;;3.50;;
49942;SDS011;36011;53.362;58.948;2023-04-24T02:09:21;7.75;;;3.88;;
49942;SDS011;36011;53.362;58.948;2023-04-24T02:12:25;4.53;;;2.95;;
49942;SDS011;36011;53.362;58.948;2023-04-24T02:15:27;5.38;;;3.45;;
49942;SDS011;36011;53.362;58.948;2023-04-24T02:21:34;4.93;;;3.08;;
49942;SDS011;36011;53.362;58.948;2023-04-24T02:24:36;3.30;;;2.75;;
49942;SDS011;36011;53.362;58.948;2023-04-24T02:27:43;4.78;;;2.65;;
49942;SDS011;36011;53.362;58.948;2023-04-24T02:30:46;5.18;;;2.53;;
49942;SDS011;36011;53.362;58.948;2023-04-24T02:33:50;6.43;;;2.72;;
49942;SDS011;36011;53.362;58.948;2023-04-24T02:36:52;6.03;;;2.90;;
49942;SDS011;36011;53.362;58.948;2023-04-24T02:39:58;3.28;;;2.58;;
49942;SDS011;36011;53.362;58.948;2023-04-24T02:42:59;3.08;;;2.40;;
49942;SDS011;36011;53.362;58.948;2023-04-24T02:46:03;3.42;;;2.50;;
49942;SDS011;36011;53.362;58.948;2023-04-24T02:49:05;3.63;;;2.30;;
49942;SDS011;36011;53.362;58.948;2023-04-24T02:52:08;8.80;;;2.67;;
49942;SDS011;36011;53.362;58.948;2023-04-24T03:01:23;3.90;;;2.05;;
49942;SDS011;36011;53.362;58.948;2023-04-24T03:04:27;2.60;;;2.40;;
49942;SDS011;36011;53.362;58.948;2023-04-24T03:07:34;2.85;;;2.45;;
49942;SDS011;36011;53.362;58.948;2023-04-24T03:10:36;3.78;;;2.47;;
49942;SDS011;36011;53.362;58.948;2023-04-24T03:13:42;3.33;;;2.10;;
49942;SDS011;36011;53.362;58.948;2023-04-24T03:19:50;3.60;;;2.28;;
49942;SDS011;36011;53.362;58.948;2023-04-24T03:22:52;2.47;;;1.60;;
49942;SDS011;36011;53.362;58.948;2023-04-24T03:25:53;5.60;;;2.10;;
49942;SDS011;36011;53.362;58.948;2023-04-24T03:28:57;3.95;;;1.70;;
49942;SDS011;36011;53.362;58.948;2023-04-24T03:32:02;3.45;;;2.05;;
49942;SDS011;36011;53.362;58.948;2023-04-24T03:35:07;4.80;;;2.17;;
49942;SDS011;36011;53.362;58.948;2023-04-24T03:38:10;4.10;;;2.00;;
49942;SDS011;36011;53.362;58.948;2023-04-24T03:41:19;2.47;;;1.58;;
49942;SDS011;36011;53.362;58.948;2023-04-24T03:44:26;2.72;;;1.55;;
49942;SDS011;36011;53.362;58.948;2023-04-24T03:47:32;4.03;;;1.77;;
49942;SDS011;36011;53.362;58.948;2023-04-24T03:50:37;2.88;;;1.60;;
49942;SDS011;36011;53.362;58.948;2023-04-24T03:56:47;4.50;;;1.92;;
49942;SDS011;36011;53.362;58.948;2023-04-24T03:59:50;4.03;;;1.97;;
49942;SDS011;36011;53.362;58.948;2023-04-24T04:02:57;4.20;;;1.70;;
49942;SDS011;36011;53.362;58.948;2023-04-24T04:06:00;2.38;;;1.38;;
49942;SDS011;36011;53.362;58.948;2023-04-24T04:09:04;3.38;;;1.60;;
49942;SDS011;36011;53.362;58.948;2023-04-24T04:12:11;2.78;;;1.73;;
49942;SDS011;36011;53.362;58.948;2023-04-24T04:15:19;1.55;;;1.45;;
49942;SDS011;36011;53.362;58.948;2023-04-24T04:18:26;1.48;;;1.17;;
49942;SDS011;36011;53.362;58.948;2023-04-24T04:21:34;3.17;;;1.38;;
49942;SDS011;36011;53.362;58.948;2023-04-24T04:24:37;2.13;;;1.23;;
49942;SDS011;36011;53.362;58.948;2023-04-24T04:27:46;1.77;;;1.08;;
49942;SDS011;36011;53.362;58.948;2023-04-24T04:30:49;3.22;;;1.65;;
49942;SDS011;36011;53.362;58.948;2023-04-24T04:33:56;1.80;;;1.23;;
49942;SDS011;36011;53.362;58.948;2023-04-24T04:37:02;1.70;;;1.13;;
49942;SDS011;36011;53.362;58.948;2023-04-24T04:40:10;3.35;;;1.23;;
49942;SDS011;36011;53.362;58.948;2023-04-24T04:43:13;3.83;;;1.33;;
49942;SDS011;36011;53.362;58.948;2023-04-24T04:46:17;3.95;;;1.00;;
49942;SDS011;36011;53.362;58.948;2023-04-24T04:49:22;2.15;;;1.15;;
49942;SDS011;36011;53.362;58.948;2023-04-24T04:52:29;1.23;;;0.90;;
49942;SDS011;36011;53.362;58.948;2023-04-24T04:55:34;1.00;;;0.75;;
49942;SDS011;36011;53.362;58.948;2023-04-24T04:58:39;2.67;;;1.05;;
49942;SDS011;36011;53.362;58.948;2023-04-24T05:01:45;1.92;;;0.73;;
49942;SDS011;36011;53.362;58.948;2023-04-24T05:04:51;3.08;;;0.60;;
49942;SDS011;36011;53.362;58.948;2023-04-24T05:08:00;1.40;;;0.85;;
49942;SDS011;36011;53.362;58.948;2023-04-24T05:11:07;1.15;;;0.50;;
49942;SDS011;36011;53.362;58.948;2023-04-24T05:14:11;2.35;;;0.52;;
49942;SDS011;36011;53.362;58.948;2023-04-24T05:17:18;1.65;;;0.45;;
49942;SDS011;36011;53.362;58.948;2023-04-24T05:20:20;1.15;;;0.55;;
49942;SDS011;36011;53.362;58.948;2023-04-24T05:23:36;1.10;;;0.20;;
49942;SDS011;36011;53.362;58.948;2023-04-24T05:26:42;0.40;;;0.20;;
49942;SDS011;36011;53.362;58.948;2023-04-24T05:29:52;1.08;;;0.25;;
49942;SDS011;36011;53.362;58.948;2023-04-24T05:32:56;1.65;;;0.30;;
49942;SDS011;36011;53.362;58.948;2023-04-24T05:36:03;1.35;;;0.38;;
49942;SDS011;36011;53.362;58.948;2023-04-24T05:39:06;1.50;;;0.35;;
49942;SDS011;36011;53.362;58.948;2023-04-24T05:42:12;0.93;;;0.40;;
49942;SDS011;36011;53.362;58.948;2023-04-24T05:45:17;1.05;;;0.50;;
49942;SDS011;36011;53.362;58.948;2023-04-24T05:48:21;0.60;;;0.22;;
49942;SDS011;36011;53.362;58.948;2023-04-24T05:51:26;3.20;;;0.50;;
49942;SDS011;36011;53.362;58.948;2023-04-24T05:54:36;0.82;;;0.70;;
49942;SDS011;36011;53.362;58.948;2023-04-24T05:57:40;2.08;;;0.50;;
49942;SDS011;36011;53.362;58.948;2023-04-24T06:00:44;1.42;;;0.90;;
49942;SDS011;36011;53.362;58.948;2023-04-24T06:03:52;0.85;;;0.30;;
49942;SDS011;36011;53.362;58.948;2023-04-24T06:06:54;0.35;;;0.10;;
49942;SDS011;36011;53.362;58.948;2023-04-24T06:10:01;1.58;;;0.30;;
49942;SDS011;36011;53.362;58.948;2023-04-24T06:13:06;0.95;;;0.15;;
49942;SDS011;36011;53.362;58.948;2023-04-24T06:16:16;0.47;;;0.22;;
49942;SDS011;36011;53.362;58.948;2023-04-24T06:19:18;1.65;;;0.57;;
49942;SDS011;36011;53.362;58.948;2023-04-24T06:22:25;1.90;;;0.35;;
49942;SDS011;36011;53.362;58.948;2023-04-24T06:25:30;0.20;;;0.20;;
49942;SDS011;36011;53.362;58.948;2023-04-24T06:28:33;0.50;;;0.30;;
49942;SDS011;36011;53.362;58.948;2023-04-24T06:31:40;1.45;;;0.40;;
49942;SDS011;36011;53.362;58.948;2023-04-24T06:34:43;0.70;;;0.30;;
49942;SDS011;36011;53.362;58.948;2023-04-24T06:37:48;1.42;;;0.63;;
49942;SDS011;36011;53.362;58.948;2023-04-24T06:40:54;1.52;;;0.40;;
49942;SDS011;36011;53.362;58.948;2023-04-24T06:43:56;1.13;;;0.25;;
49942;SDS011;36011;53.362;58.948;2023-04-24T06:47:00;2.45;;;0.32;;
49942;SDS011;36011;53.362;58.948;2023-04-24T06:50:04;2.28;;;0.40;;
49942;SDS011;36011;53.362;58.948;2023-04-24T06:53:09;1.17;;;0.30;;
49942;SDS011;36011;53.362;58.948;2023-04-24T06:56:16;1.27;;;0.40;;
49942;SDS011;36011;53.362;58.948;2023-04-24T06:59:22;0.70;;;0.40;;
49942;SDS011;36011;53.362;58.948;2023-04-24T07:02:27;0.73;;;0.20;;
49942;SDS011;36011;53.362;58.948;2023-04-24T07:05:29;0.90;;;0.20;;
49942;SDS011;36011;53.362;58.948;2023-04-24T07:08:35;1.15;;;0.35;;
49942;SDS011;36011;53.362;58.948;2023-04-24T07:11:39;0.22;;;0.13;;
49942;SDS011;36011;53.362;58.948;2023-04-24T07:14:44;0.75;;;0.20;;
49942;SDS011;36011;53.362;58.948;2023-04-24T07:17:46;1.25;;;0.30;;
49942;SDS011;36011;53.362;58.948;2023-04-24T07:20:53;1.75;;;0.20;;
49942;SDS011;36011;53.362;58.948;2023-04-24T07:24:01;0.30;;;0.20;;
49942;SDS011;36011;53.362;58.948;2023-04-24T07:27:05;1.80;;;0.20;;
49942;SDS011;36011;53.362;58.948;2023-04-24T07:30:10;0.28;;;0.20;;
49942;SDS011;36011;53.362;58.948;2023-04-24T07:33:12;0.40;;;0.20;;
49942;SDS011;36011;53.362;58.948;2023-04-24T07:36:16;2.03;;;0.95;;
49942;SDS011;36011;53.362;58.948;2023-04-24T07:39:26;1.15;;;0.80;;
49942;SDS011;36011;53.362;58.948;2023-04-24T07:42:33;0.60;;;0.40;;
49942;SDS011;36011;53.362;58.948;2023-04-24T07:45:37;1.13;;;0.60;;
49942;SDS011;36011;53.362;58.948;2023-04-24T07:48:46;1.35;;;0.50;;
49942;SDS011;36011;53.362;58.948;2023-04-24T07:51:53;0.68;;;0.30;;
49942;SDS011;36011;53.362;58.948;2023-04-24T07:54:57;0.80;;;0.30;;
49942;SDS011;36011;53.362;58.948;2023-04-24T07:58:06;0.80;;;0.20;;
49942;SDS011;36011;53.362;58.948;2023-04-24T08:01:12;1.30;;;0.30;;
49942;SDS011;36011;53.362;58.948;2023-04-24T08:04:19;1.98;;;0.28;;
49942;SDS011;36011;53.362;58.948;2023-04-24T08:07:27;0.73;;;0.30;;
49942;SDS011;36011;53.362;58.948;2023-04-24T08:10:29;0.52;;;0.32;;
49942;SDS011;36011;53.362;58.948;2023-04-24T08:13:32;1.05;;;0.45;;
49942;SDS011;36011;53.362;58.948;2023-04-24T08:16:38;1.42;;;0.40;;
49942;SDS011;36011;53.362;58.948;2023-04-24T08:19:42;0.80;;;0.40;;
49942;SDS011;36011;53.362;58.948;2023-04-24T08:22:48;0.70;;;0.40;;
49942;SDS011;36011;53.362;58.948;2023-04-24T08:25:52;0.40;;;0.40;;
49942;SDS011;36011;53.362;58.948;2023-04-24T08:28:56;1.60;;;0.77;;
49942;SDS011;36011;53.362;58.948;2023-04-24T08:32:03;0.88;;;0.50;;
49942;SDS011;36011;53.362;58.948;2023-04-24T08:35:08;1.48;;;0.45;;
49942;SDS011;36011;53.362;58.948;2023-04-24T08:38:12;0.90;;;0.40;;
49942;SDS011;36011;53.362;58.948;2023-04-24T08:41:22;1.45;;;0.45;;
49942;SDS011;36011;53.362;58.948;2023-04-24T08:44:31;0.52;;;0.32;;
49942;SDS011;36011;53.362;58.948;2023-04-24T08:47:39;0.90;;;0.50;;
49942;SDS011;36011;53.362;58.948;2023-04-24T08:50:45;0.73;;;0.50;;
49942;SDS011;36011;53.362;58.948;2023-04-24T08:53:58;0.85;;;0.20;;
49942;SDS011;36011;53.362;58.948;2023-04-24T08:57:07;0.73;;;0.22;;
49942;SDS011;36011;53.362;58.948;2023-04-24T09:00:13;2.67;;;1.35;;
49942;SDS011;36011;53.362;58.948;2023-04-24T09:03:19;0.80;;;0.43;;
49942;SDS011;36011;53.362;58.948;2023-04-24T09:06:27;1.92;;;0.47;;
49942;SDS011;36011;53.362;58.948;2023-04-24T09:09:32;0.98;;;0.25;;
49942;SDS011;36011;53.362;58.948;2023-04-24T09:12:36;1.77;;;0.80;;
49942;SDS011;36011;53.362;58.948;2023-04-24T09:15:39;1.90;;;0.52;;
49942;SDS011;36011;53.362;58.948;2023-04-24T09:18:46;1.50;;;0.68;;
49942;SDS011;36011;53.362;58.948;2023-04-24T09:21:49;1.75;;;1.10;;
49942;SDS011;36011;53.362;58.948;2023-04-24T09:28:32;1.17;;;0.70;;
49942;SDS011;36011;53.362;58.948;2023-04-24T09:31:42;1.60;;;0.38;;
49942;SDS011;36011;53.362;58.948;2023-04-24T09:34:47;1.23;;;0.60;;
49942;SDS011;36011;53.362;58.948;2023-04-24T09:37:51;0.70;;;0.60;;
49942;SDS011;36011;53.362;58.948;2023-04-24T09:40:53;1.67;;;0.80;;
49942;SDS011;36011;53.362;58.948;2023-04-24T09:43:56;2.00;;;1.05;;
49942;SDS011;36011;53.362;58.948;2023-04-24T09:47:13;2.00;;;0.90;;
49942;SDS011;36011;53.362;58.948;2023-04-24T09:50:21;1.13;;;0.60;;
49942;SDS011;36011;53.362;58.948;2023-04-24T09:53:25;0.50;;;0.28;;
49942;SDS011;36011;53.362;58.948;2023-04-24T09:56:33;1.50;;;0.40;;
49942;SDS011;36011;53.362;58.948;2023-04-24T09:59:45;1.00;;;0.70;;
49942;SDS011;36011;53.362;58.948;2023-04-24T10:06:03;1.10;;;0.90;;
49942;SDS011;36011;53.362;58.948;2023-04-24T10:09:14;1.27;;;0.60;;
49942;SDS011;36011;53.362;58.948;2023-04-24T10:12:22;0.50;;;0.47;;
49942;SDS011;36011;53.362;58.948;2023-04-24T10:15:30;2.47;;;0.50;;
49942;SDS011;36011;53.362;58.948;2023-04-24T10:18:35;0.90;;;0.55;;
49942;SDS011;36011;53.362;58.948;2023-04-24T10:21:40;1.83;;;0.63;;
49942;SDS011;36011;53.362;58.948;2023-04-24T10:24:46;1.65;;;0.50;;
49942;SDS011;36011;53.362;58.948;2023-04-24T10:27:54;1.55;;;0.80;;
49942;SDS011;36011;53.362;58.948;2023-04-24T10:31:04;0.50;;;0.30;;
49942;SDS011;36011;53.362;58.948;2023-04-24T10:34:05;2.33;;;0.70;;
49942;SDS011;36011;53.362;58.948;2023-04-24T10:37:12;1.00;;;0.60;;
49942;SDS011;36011;53.362;58.948;2023-04-24T10:40:24;2.60;;;1.02;;
49942;SDS011;36011;53.362;58.948;2023-04-24T10:43:29;3.50;;;0.63;;
49942;SDS011;36011;53.362;58.948;2023-04-24T10:46:34;2.72;;;0.75;;
49942;SDS011;36011;53.362;58.948;2023-04-24T10:49:39;0.85;;;0.63;;
49942;SDS011;36011;53.362;58.948;2023-04-24T10:52:44;1.50;;;0.50;;
49942;SDS011;36011;53.362;58.948;2023-04-24T10:55:56;1.92;;;0.77;;
49942;SDS011;36011;53.362;58.948;2023-04-24T10:59:08;1.70;;;0.70;;
49942;SDS011;36011;53.362;58.948;2023-04-24T11:02:36;1.40;;;0.30;;
49942;SDS011;36011;53.362;58.948;2023-04-24T11:05:55;1.83;;;0.70;;
49942;SDS011;36011;53.362;58.948;2023-04-24T11:09:07;1.90;;;0.55;;
49942;SDS011;36011;53.362;58.948;2023-04-24T11:12:16;2.92;;;0.63;;
49942;SDS011;36011;53.362;58.948;2023-04-24T11:15:21;2.20;;;0.90;;
49942;SDS011;36011;53.362;58.948;2023-04-24T11:18:24;1.73;;;0.52;;
49942;SDS011;36011;53.362;58.948;2023-04-24T11:21:44;5.82;;;0.88;;
49942;SDS011;36011;53.362;58.948;2023-04-24T11:24:53;1.17;;;0.80;;
49942;SDS011;36011;53.362;58.948;2023-04-24T11:28:05;2.63;;;0.65;;
49942;SDS011;36011;53.362;58.948;2023-04-24T11:31:38;1.35;;;0.70;;
49942;SDS011;36011;53.362;58.948;2023-04-24T11:34:45;1.02;;;0.50;;
49942;SDS011;36011;53.362;58.948;2023-04-24T11:37:48;0.60;;;0.55;;
49942;SDS011;36011;53.362;58.948;2023-04-24T11:40:54;1.30;;;0.63;;
49942;SDS011;36011;53.362;58.948;2023-04-24T11:44:01;1.58;;;0.50;;
49942;SDS011;36011;53.362;58.948;2023-04-24T11:47:12;1.13;;;0.82;;
49942;SDS011;36011;53.362;58.948;2023-04-24T11:50:22;1.00;;;0.50;;
49942;SDS011;36011;53.362;58.948;2023-04-24T11:53:26;5.78;;;0.98;;
49942;SDS011;36011;53.362;58.948;2023-04-24T11:56:33;1.48;;;0.65;;
49942;SDS011;36011;53.362;58.948;2023-04-24T11:59:35;2.75;;;1.20;;
49942;SDS011;36011;53.362;58.948;2023-04-24T12:02:40;2.58;;;0.85;;
49942;SDS011;36011;53.362;58.948;2023-04-24T12:05:45;1.95;;;0.80;;
49942;SDS011;36011;53.362;58.948;2023-04-24T12:08:52;4.35;;;0.80;;
49942;SDS011;36011;53.362;58.948;2023-04-24T12:12:02;1.50;;;0.50;;
49942;SDS011;36011;53.362;58.948;2023-04-24T12:15:12;1.95;;;0.80;;
49942;SDS011;36011;53.362;58.948;2023-04-24T12:18:21;2.25;;;0.80;;
49942;SDS011;36011;53.362;58.948;2023-04-24T12:21:28;0.68;;;0.60;;
49942;SDS011;36011;53.362;58.948;2023-04-24T12:24:31;1.30;;;0.90;;
49942;SDS011;36011;53.362;58.948;2023-04-24T12:27:36;1.40;;;0.70;;
49942;SDS011;36011;53.362;58.948;2023-04-24T12:30:43;1.40;;;0.68;;
49942;SDS011;36011;53.362;58.948;2023-04-24T12:33:46;1.02;;;0.60;;
49942;SDS011;36011;53.362;58.948;2023-04-24T12:36:47;2.42;;;0.68;;
49942;SDS011;36011;53.362;58.948;2023-04-24T12:43:14;0.88;;;0.57;;
49942;SDS011;36011;53.362;58.948;2023-04-24T12:46:21;1.08;;;0.73;;
49942;SDS011;36011;53.362;58.948;2023-04-24T12:49:24;1.85;;;0.57;;
49942;SDS011;36011;53.362;58.948;2023-04-24T12:52:31;1.00;;;0.60;;
49942;SDS011;36011;53.362;58.948;2023-04-24T12:55:40;2.00;;;0.52;;
49942;SDS011;36011;53.362;58.948;2023-04-24T12:58:41;0.98;;;0.70;;
49942;SDS011;36011;53.362;58.948;2023-04-24T13:01:45;2.22;;;0.80;;
49942;SDS011;36011;53.362;58.948;2023-04-24T13:04:53;1.70;;;0.80;;
49942;SDS011;36011;53.362;58.948;2023-04-24T13:11:01;4.32;;;1.98;;
49942;SDS011;36011;53.362;58.948;2023-04-24T13:14:11;2.75;;;1.60;;
49942;SDS011;36011;53.362;58.948;2023-04-24T13:17:18;2.65;;;0.93;;
49942;SDS011;36011;53.362;58.948;2023-04-24T13:20:22;3.33;;;1.85;;
49942;SDS011;36011;53.362;58.948;2023-04-24T13:23:29;3.65;;;2.22;;
49942;SDS011;36011;53.362;58.948;2023-04-24T13:26:35;2.05;;;1.40;;
49942;SDS011;36011;53.362;58.948;2023-04-24T13:29:44;2.78;;;1.08;;
49942;SDS011;36011;53.362;58.948;2023-04-24T13:32:52;3.20;;;1.27;;
49942;SDS011;36011;53.362;58.948;2023-04-24T13:35:56;3.25;;;1.40;;
49942;SDS011;36011;53.362;58.948;2023-04-24T13:39:00;2.25;;;1.40;;
49942;SDS011;36011;53.362;58.948;2023-04-24T13:42:10;3.75;;;1.60;;
49942;SDS011;36011;53.362;58.948;2023-04-24T13:45:14;2.65;;;2.10;;
49942;SDS011;36011;53.362;58.948;2023-04-24T13:48:20;4.03;;;2.38;;
49942;SDS011;36011;53.362;58.948;2023-04-24T13:51:27;4.20;;;2.88;;
49942;SDS011;36011;53.362;58.948;2023-04-24T13:54:35;3.03;;;2.03;;
49942;SDS011;36011;53.362;58.948;2023-04-24T13:57:42;3.42;;;1.90;;
49942;SDS011;36011;53.362;58.948;2023-04-24T14:00:49;1.75;;;1.33;;
49942;SDS011;36011;53.362;58.948;2023-04-24T14:03:53;1.30;;;1.08;;
49942;SDS011;36011;53.362;58.948;2023-04-24T14:06:57;2.85;;;1.67;;
49942;SDS011;36011;53.362;58.948;2023-04-24T14:10:01;4.80;;;2.95;;
49942;SDS011;36011;53.362;58.948;2023-04-24T14:13:07;5.28;;;2.33;;
49942;SDS011;36011;53.362;58.948;2023-04-24T14:16:13;1.85;;;1.25;;
49942;SDS011;36011;53.362;58.948;2023-04-24T14:19:17;2.78;;;1.10;;
49942;SDS011;36011;53.362;58.948;2023-04-24T14:22:19;2.17;;;1.25;;
49942;SDS011;36011;53.362;58.948;2023-04-24T14:25:23;1.30;;;1.10;;
49942;SDS011;36011;53.362;58.948;2023-04-24T14:28:30;2.03;;;1.35;;
49942;SDS011;36011;53.362;58.948;2023-04-24T14:31:32;2.50;;;0.90;;
49942;SDS011;36011;53.362;58.948;2023-04-24T14:34:33;4.00;;;1.30;;
49942;SDS011;36011;53.362;58.948;2023-04-24T14:37:40;2.60;;;1.75;;
49942;SDS011;36011;53.362;58.948;2023-04-24T14:40:44;3.58;;;1.55;;
49942;SDS011;36011;53.362;58.948;2023-04-24T14:43:47;2.72;;;1.58;;
49942;SDS011;36011;53.362;58.948;2023-04-24T14:46:49;2.85;;;1.70;;
49942;SDS011;36011;53.362;58.948;2023-04-24T14:49:56;2.63;;;1.73;;
49942;SDS011;36011;53.362;58.948;2023-04-24T14:52:57;3.58;;;1.63;;
49942;SDS011;36011;53.362;58.948;2023-04-24T14:56:05;3.40;;;1.50;;
49942;SDS011;36011;53.362;58.948;2023-04-24T14:59:12;3.83;;;2.00;;
49942;SDS011;36011;53.362;58.948;2023-04-24T15:02:18;4.35;;;1.40;;
49942;SDS011;36011;53.362;58.948;2023-04-24T15:05:25;3.40;;;1.38;;
49942;SDS011;36011;53.362;58.948;2023-04-24T15:08:27;2.83;;;1.40;;
49942;SDS011;36011;53.362;58.948;2023-04-24T15:11:30;2.08;;;1.27;;
49942;SDS011;36011;53.362;58.948;2023-04-24T15:14:33;4.28;;;1.80;;
49942;SDS011;36011;53.362;58.948;2023-04-24T15:17:38;1.85;;;1.65;;
49942;SDS011;36011;53.362;58.948;2023-04-24T15:20:42;2.45;;;1.25;;
49942;SDS011;36011;53.362;58.948;2023-04-24T15:23:52;2.85;;;1.60;;
49942;SDS011;36011;53.362;58.948;2023-04-24T15:27:01;4.25;;;1.77;;
49942;SDS011;36011;53.362;58.948;2023-04-24T15:30:08;3.40;;;1.50;;
49942;SDS011;36011;53.362;58.948;2023-04-24T15:33:11;4.13;;;1.87;;
49942;SDS011;36011;53.362;58.948;2023-04-24T15:36:15;3.58;;;1.70;;
49942;SDS011;36011;53.362;58.948;2023-04-24T15:39:16;5.80;;;2.75;;
49942;SDS011;36011;53.362;58.948;2023-04-24T15:42:23;5.88;;;2.78;;
49942;SDS011;36011;53.362;58.948;2023-04-24T15:45:27;6.25;;;3.13;;
49942;SDS011;36011;53.362;58.948;2023-04-24T15:48:33;10.05;;;2.90;;
49942;SDS011;36011;53.362;58.948;2023-04-24T15:51:35;6.25;;;3.20;;
49942;SDS011;36011;53.362;58.948;2023-04-24T15:54:42;7.20;;;2.95;;
49942;SDS011;36011;53.362;58.948;2023-04-24T15:57:48;5.20;;;2.33;;
49942;SDS011;36011;53.362;58.948;2023-04-24T16:00:54;3.40;;;2.50;;
49942;SDS011;36011;53.362;58.948;2023-04-24T16:03:58;2.63;;;2.10;;
49942;SDS011;36011;53.362;58.948;2023-04-24T16:07:03;5.00;;;2.40;;
49942;SDS011;36011;53.362;58.948;2023-04-24T16:10:10;3.67;;;2.35;;
49942;SDS011;36011;53.362;58.948;2023-04-24T16:13:16;4.90;;;2.60;;
49942;SDS011;36011;53.362;58.948;2023-04-24T16:16:21;3.50;;;2.50;;
49942;SDS011;36011;53.362;58.948;2023-04-24T16:19:27;3.65;;;2.20;;
49942;SDS011;36011;53.362;58.948;2023-04-24T16:22:41;3.53;;;1.85;;
49942;SDS011;36011;53.362;58.948;2023-04-24T16:25:47;3.83;;;1.85;;
49942;SDS011;36011;53.362;58.948;2023-04-24T16:28:51;3.08;;;1.40;;
49942;SDS011;36011;53.362;58.948;2023-04-24T16:31:56;1.88;;;1.40;;
49942;SDS011;36011;53.362;58.948;2023-04-24T16:35:00;2.50;;;1.50;;
49942;SDS011;36011;53.362;58.948;2023-04-24T16:38:05;3.17;;;1.80;;
49942;SDS011;36011;53.362;58.948;2023-04-24T16:41:12;4.03;;;2.40;;
49942;SDS011;36011;53.362;58.948;2023-04-24T16:44:18;4.03;;;2.30;;
49942;SDS011;36011;53.362;58.948;2023-04-24T16:47:20;2.80;;;2.17;;
49942;SDS011;36011;53.362;58.948;2023-04-24T16:50:27;5.47;;;2.85;;
49942;SDS011;36011;53.362;58.948;2023-04-24T16:53:30;4.97;;;3.30;;
49942;SDS011;36011;53.362;58.948;2023-04-24T16:56:37;10.88;;;5.97;;
49942;SDS011;36011;53.362;58.948;2023-04-24T16:59:46;9.48;;;6.00;;
49942;SDS011;36011;53.362;58.948;2023-04-24T17:02:52;8.30;;;4.30;;
49942;SDS011;36011;53.362;58.948;2023-04-24T17:05:57;6.82;;;4.28;;
49942;SDS011;36011;53.362;58.948;2023-04-24T17:09:04;4.55;;;3.13;;
49942;SDS011;36011;53.362;58.948;2023-04-24T17:12:05;3.40;;;2.63;;
49942;SDS011;36011;53.362;58.948;2023-04-24T17:15:11;2.13;;;1.90;;
49942;SDS011;36011;53.362;58.948;2023-04-24T17:18:15;3.28;;;2.20;;
49942;SDS011;36011;53.362;58.948;2023-04-24T17:21:24;1.80;;;1.20;;
49942;SDS011;36011;53.362;58.948;2023-04-24T17:24:29;2.88;;;1.50;;
49942;SDS011;36011;53.362;58.948;2023-04-24T17:30:36;2.47;;;1.30;;
49942;SDS011;36011;53.362;58.948;2023-04-24T17:36:41;2.83;;;1.33;;
49942;SDS011;36011;53.362;58.948;2023-04-24T17:39:42;1.65;;;1.38;;
49942;SDS011;36011;53.362;58.948;2023-04-24T17:42:51;1.92;;;1.70;;
49942;SDS011;36011;53.362;58.948;2023-04-24T17:45:55;3.05;;;1.38;;
49942;SDS011;36011;53.362;58.948;2023-04-24T17:49:05;3.80;;;1.40;;
49942;SDS011;36011;53.362;58.948;2023-04-24T17:52:08;1.98;;;1.42;;
49942;SDS011;36011;53.362;58.948;2023-04-24T17:55:14;2.65;;;1.40;;
49942;SDS011;36011;53.362;58.948;2023-04-24T17:58:24;2.97;;;1.75;;
49942;SDS011;36011;53.362;58.948;2023-04-24T18:01:29;1.65;;;1.55;;
49942;SDS011;36011;53.362;58.948;2023-04-24T18:04:36;5.00;;;1.75;;
49942;SDS011;36011;53.362;58.948;2023-04-24T18:07:39;2.88;;;1.60;;
49942;SDS011;36011;53.362;58.948;2023-04-24T18:10:47;1.73;;;1.40;;
49942;SDS011;36011;53.362;58.948;2023-04-24T18:13:51;1.38;;;1.27;;
49942;SDS011;36011;53.362;58.948;2023-04-24T18:16:52;2.83;;;2.08;;
49942;SDS011;36011;53.362;58.948;2023-04-24T18:20:00;2.05;;;1.27;;
49942;SDS011;36011;53.362;58.948;2023-04-24T18:23:09;3.60;;;1.75;;
49942;SDS011;36011;53.362;58.948;2023-04-24T18:26:15;2.90;;;1.40;;
49942;SDS011;36011;53.362;58.948;2023-04-24T18:29:21;1.10;;;1.00;;
49942;SDS011;36011;53.362;58.948;2023-04-24T18:35:26;1.30;;;1.20;;
49942;SDS011;36011;53.362;58.948;2023-04-24T18:38:31;2.45;;;1.45;;
49942;SDS011;36011;53.362;58.948;2023-04-24T18:41:37;3.63;;;1.42;;
49942;SDS011;36011;53.362;58.948;2023-04-24T18:44:38;2.25;;;1.50;;
49942;SDS011;36011;53.362;58.948;2023-04-24T18:47:43;2.08;;;1.50;;
49942;SDS011;36011;53.362;58.948;2023-04-24T18:50:47;2.95;;;1.60;;
49942;SDS011;36011;53.362;58.948;2023-04-24T18:53:53;2.75;;;1.70;;
49942;SDS011;36011;53.362;58.948;2023-04-24T18:56:57;2.85;;;1.67;;
49942;SDS011;36011;53.362;58.948;2023-04-24T18:59:59;1.65;;;1.38;;
49942;SDS011;36011;53.362;58.948;2023-04-24T19:03:03;1.60;;;1.30;;
49942;SDS011;36011;53.362;58.948;2023-04-24T19:06:08;3.45;;;1.65;;